createdAt,value
2017-06-21T00:00:23.874Z,1013.37
2017-06-21T00:01:18.998Z,1013.30
2017-06-21T00:02:19.986Z,1013.28
2017-06-21T00:03:14.138Z,1013.31
2017-06-21T00:04:02.143Z,1013.30
2017-06-21T00:04:56.183Z,1013.32
2017-06-21T00:05:50.166Z,1013.31
2017-06-21T00:06:45.205Z,1013.30
2017-06-21T00:07:40.275Z,1013.31
2017-06-21T00:08:29.276Z,1013.25
2017-06-21T00:09:18.335Z,1013.24
2017-06-21T00:10:12.290Z,1013.27
2017-06-21T00:11:06.452Z,1013.24
2017-06-21T00:12:12.464Z,1013.23
2017-06-21T00:13:12.558Z,1013.24
2017-06-21T00:14:07.543Z,1013.23
2017-06-21T00:14:56.183Z,1013.27
2017-06-21T00:15:50.556Z,1013.34
2017-06-21T00:16:50.648Z,1013.33
2017-06-21T00:17:44.859Z,1013.30
2017-06-21T00:18:44.462Z,1013.31
2017-06-21T00:19:33.788Z,1013.32
2017-06-21T00:20:21.886Z,1013.31
2017-06-21T00:21:10.483Z,1013.31
2017-06-21T00:22:05.560Z,1013.30
2017-06-21T00:23:00.005Z,1013.34
2017-06-21T00:23:59.606Z,1013.35
2017-06-21T00:24:59.907Z,1013.36
2017-06-21T00:25:49.003Z,1013.32
2017-06-21T00:26:42.988Z,1013.30
2017-06-21T00:27:49.190Z,1013.33
2017-06-21T00:28:43.177Z,1013.34
2017-06-21T00:29:32.210Z,1013.32
2017-06-21T00:30:27.227Z,1013.28
2017-06-21T00:31:21.221Z,1013.28
2017-06-21T00:32:16.247Z,1013.32
2017-06-21T00:33:15.996Z,1013.31
2017-06-21T00:34:10.593Z,1013.30
2017-06-21T00:35:05.311Z,1013.36
2017-06-21T00:36:00.116Z,1013.34
2017-06-21T00:36:54.121Z,1013.32
2017-06-21T00:37:49.598Z,1013.39
2017-06-21T00:38:38.565Z,1013.43
2017-06-21T00:39:33.635Z,1013.40
2017-06-21T00:40:33.295Z,1013.42
2017-06-21T00:41:22.596Z,1013.45
2017-06-21T00:42:16.342Z,1013.39
2017-06-21T00:43:11.857Z,1013.41
2017-06-21T00:44:11.436Z,1013.39
2017-06-21T00:45:17.462Z,1013.38
2017-06-21T00:46:11.525Z,1013.38
2017-06-21T00:47:06.595Z,1013.34
2017-06-21T00:48:06.625Z,1013.32
2017-06-21T00:49:00.772Z,1013.31
2017-06-21T00:49:54.679Z,1013.32
2017-06-21T00:50:48.716Z,1013.30
2017-06-21T00:51:43.766Z,1013.33
2017-06-21T00:52:37.892Z,1013.33
2017-06-21T00:53:32.088Z,1013.33
2017-06-21T00:54:31.874Z,1013.29
2017-06-21T00:55:32.074Z,1013.31
2017-06-21T00:56:25.914Z,1013.27
2017-06-21T00:57:14.982Z,1013.31
2017-06-21T00:58:09.437Z,1013.32
2017-06-21T00:59:03.074Z,1013.33
2017-06-21T00:59:58.056Z,1013.34
2017-06-21T01:00:47.116Z,1013.33
2017-06-21T01:01:42.212Z,1013.38
2017-06-21T01:02:30.194Z,1013.35
2017-06-21T01:03:30.265Z,1013.35
2017-06-21T01:04:25.278Z,1013.33
2017-06-21T01:05:25.285Z,1013.33
2017-06-21T01:06:20.362Z,1013.37
2017-06-21T01:07:14.557Z,1013.36
2017-06-21T01:08:14.802Z,1013.39
2017-06-21T01:09:08.496Z,1013.37
2017-06-21T01:09:57.497Z,1013.39
2017-06-21T01:10:51.572Z,1013.37
2017-06-21T01:11:57.558Z,1013.39
2017-06-21T01:12:51.765Z,1013.38
2017-06-21T01:13:45.590Z,1013.41
2017-06-21T01:14:34.664Z,1013.43
2017-06-21T01:15:34.748Z,1013.43
2017-06-21T01:16:28.799Z,1013.44
2017-06-21T01:17:28.796Z,1013.42
2017-06-21T01:18:23.830Z,1013.42
2017-06-21T01:19:17.839Z,1013.45
2017-06-21T01:20:06.915Z,1013.45
2017-06-21T01:21:00.925Z,1013.44
2017-06-21T01:22:00.966Z,1013.46
2017-06-21T01:22:56.073Z,1013.47
2017-06-21T01:23:51.365Z,1013.48
2017-06-21T01:24:51.093Z,1013.46
2017-06-21T01:25:45.233Z,1013.44
2017-06-21T01:26:45.194Z,1013.49
2017-06-21T01:27:40.171Z,1013.51
2017-06-21T01:28:34.272Z,1013.53
2017-06-21T01:29:29.713Z,1013.50
2017-06-21T01:30:23.309Z,1013.52
2017-06-21T01:31:24.327Z,1013.53
2017-06-21T01:32:12.441Z,1013.52
2017-06-21T01:33:01.523Z,1013.53
2017-06-21T01:33:55.740Z,1013.54
2017-06-21T01:34:50.484Z,1013.51
2017-06-21T01:35:44.580Z,1013.53
2017-06-21T01:36:39.600Z,1013.54
2017-06-21T01:37:33.618Z,1013.52
2017-06-21T01:38:27.671Z,1013.55
2017-06-21T01:39:21.705Z,1013.54
2017-06-21T01:40:15.835Z,1013.55
2017-06-21T01:41:17.186Z,1013.54
2017-06-21T01:42:11.808Z,1013.54
2017-06-21T01:43:00.918Z,1013.57
2017-06-21T01:43:55.851Z,1013.57
2017-06-21T01:44:49.888Z,1013.61
2017-06-21T01:45:43.994Z,1013.61
2017-06-21T01:46:32.959Z,1013.57
2017-06-21T01:47:33.189Z,1013.54
2017-06-21T01:48:28.084Z,1013.55
2017-06-21T01:49:22.066Z,1013.56
2017-06-21T01:50:22.184Z,1013.60
2017-06-21T01:51:16.203Z,1013.58
2017-06-21T01:52:22.213Z,1013.56
2017-06-21T01:53:16.404Z,1013.58
2017-06-21T01:54:11.299Z,1013.58
2017-06-21T01:55:05.424Z,1013.59
2017-06-21T01:56:05.778Z,1013.62
2017-06-21T01:56:54.497Z,1013.59
2017-06-21T01:57:48.406Z,1013.59
2017-06-21T01:58:36.464Z,1013.58
2017-06-21T01:59:25.522Z,1013.59
2017-06-21T02:00:13.583Z,1013.60
2017-06-21T02:01:07.589Z,1013.54
2017-06-21T02:02:01.711Z,1013.56
2017-06-21T02:02:56.074Z,1013.59
2017-06-21T02:03:55.727Z,1013.57
2017-06-21T02:04:44.818Z,1013.55
2017-06-21T02:05:39.782Z,1013.53
2017-06-21T02:06:33.823Z,1013.51
2017-06-21T02:07:28.880Z,1013.53
2017-06-21T02:08:18.109Z,1013.50
2017-06-21T02:09:13.137Z,1013.48
2017-06-21T02:10:07.494Z,1013.49
2017-06-21T02:11:07.010Z,1013.49
2017-06-21T02:12:01.068Z,1013.48
2017-06-21T02:12:55.595Z,1013.46
2017-06-21T02:13:49.178Z,1013.50
2017-06-21T02:14:44.206Z,1013.49
2017-06-21T02:15:38.257Z,1013.44
2017-06-21T02:16:27.285Z,1013.46
2017-06-21T02:17:21.288Z,1013.46
2017-06-21T02:18:16.791Z,1013.44
2017-06-21T02:19:10.345Z,1013.48
2017-06-21T02:20:05.396Z,1013.46
2017-06-21T02:21:00.425Z,1013.45
2017-06-21T02:21:54.812Z,1013.43
2017-06-21T02:22:49.948Z,1013.38
2017-06-21T02:23:38.597Z,1013.39
2017-06-21T02:24:26.601Z,1013.35
2017-06-21T02:25:26.694Z,1013.33
2017-06-21T02:26:26.682Z,1013.34
2017-06-21T02:27:14.710Z,1013.36
2017-06-21T02:28:03.099Z,1013.34
2017-06-21T02:28:52.165Z,1013.32
2017-06-21T02:29:45.871Z,1013.31
2017-06-21T02:30:39.877Z,1013.31
2017-06-21T02:31:33.897Z,1013.34
2017-06-21T02:32:34.386Z,1013.36
2017-06-21T02:33:23.434Z,1013.36
2017-06-21T02:34:18.087Z,1013.31
2017-06-21T02:35:13.274Z,1013.34
2017-06-21T02:36:07.133Z,1013.37
2017-06-21T02:37:02.189Z,1013.34
2017-06-21T02:37:56.179Z,1013.33
2017-06-21T02:38:44.300Z,1013.30
2017-06-21T02:39:38.418Z,1013.31
2017-06-21T02:40:39.352Z,1013.27
2017-06-21T02:41:33.360Z,1013.29
2017-06-21T02:42:33.880Z,1013.33
2017-06-21T02:43:22.453Z,1013.32
2017-06-21T02:44:16.534Z,1013.33
2017-06-21T02:45:16.582Z,1013.33
2017-06-21T02:46:10.507Z,1013.39
2017-06-21T02:47:04.560Z,1013.29
2017-06-21T02:47:52.608Z,1013.31
2017-06-21T02:48:52.741Z,1013.31
2017-06-21T02:49:41.721Z,1013.33
2017-06-21T02:50:29.864Z,1013.36
2017-06-21T02:51:18.910Z,1013.37
2017-06-21T02:52:18.882Z,1013.35
2017-06-21T02:53:18.844Z,1013.34
2017-06-21T02:54:13.870Z,1013.29
2017-06-21T02:55:13.918Z,1013.31
2017-06-21T02:56:13.992Z,1013.32
2017-06-21T02:57:08.012Z,1013.31
2017-06-21T02:58:08.049Z,1013.31
2017-06-21T02:59:02.081Z,1013.28
2017-06-21T02:59:56.079Z,1013.26
2017-06-21T03:00:56.114Z,1013.27
2017-06-21T03:01:51.278Z,1013.27
2017-06-21T03:02:51.192Z,1013.25
2017-06-21T03:03:46.237Z,1013.29
2017-06-21T03:04:40.293Z,1013.23
2017-06-21T03:05:35.263Z,1013.28
2017-06-21T03:06:36.363Z,1013.28
2017-06-21T03:07:31.925Z,1013.28
2017-06-21T03:08:31.404Z,1013.26
2017-06-21T03:09:31.558Z,1013.31
2017-06-21T03:10:31.565Z,1013.32
2017-06-21T03:11:31.514Z,1013.31
2017-06-21T03:12:32.065Z,1013.34
2017-06-21T03:13:31.636Z,1013.33
2017-06-21T03:14:31.580Z,1013.29
2017-06-21T03:15:32.007Z,1013.30
2017-06-21T03:16:31.868Z,1013.31
2017-06-21T03:17:32.227Z,1013.27
2017-06-21T03:18:32.136Z,1013.25
2017-06-21T03:19:32.178Z,1013.28
2017-06-21T03:20:26.166Z,1013.27
2017-06-21T03:21:20.201Z,1013.28
2017-06-21T03:22:20.268Z,1013.30
2017-06-21T03:23:14.293Z,1013.25
2017-06-21T03:24:09.288Z,1013.27
2017-06-21T03:25:04.398Z,1013.25
2017-06-21T03:25:58.417Z,1013.21
2017-06-21T03:26:53.453Z,1013.23
2017-06-21T03:27:54.427Z,1013.19
2017-06-21T03:28:48.512Z,1013.17
2017-06-21T03:29:43.557Z,1013.22
2017-06-21T03:30:43.588Z,1013.22
2017-06-21T03:31:38.668Z,1013.22
2017-06-21T03:32:33.747Z,1013.19
2017-06-21T03:33:27.714Z,1013.22
2017-06-21T03:34:27.751Z,1013.21
2017-06-21T03:35:16.818Z,1013.22
2017-06-21T03:36:10.875Z,1013.19
2017-06-21T03:37:10.907Z,1013.19
2017-06-21T03:38:04.996Z,1013.18
2017-06-21T03:39:05.865Z,1013.16
2017-06-21T03:40:11.968Z,1013.16
2017-06-21T03:41:07.014Z,1013.17
2017-06-21T03:42:02.009Z,1013.15
2017-06-21T03:42:50.069Z,1013.17
2017-06-21T03:43:50.126Z,1013.17
2017-06-21T03:44:45.147Z,1013.13
2017-06-21T03:45:39.243Z,1013.14
2017-06-21T03:46:34.672Z,1013.15
2017-06-21T03:47:28.261Z,1013.15
2017-06-21T03:48:22.354Z,1013.14
2017-06-21T03:49:17.382Z,1013.12
2017-06-21T03:50:11.441Z,1013.09
2017-06-21T03:50:59.421Z,1013.13
2017-06-21T03:52:00.554Z,1013.08
2017-06-21T03:53:00.491Z,1013.08
2017-06-21T03:54:00.554Z,1013.12
2017-06-21T03:55:00.571Z,1013.10
2017-06-21T03:56:00.735Z,1013.14
2017-06-21T03:57:00.606Z,1013.13
2017-06-21T03:57:55.678Z,1013.11
2017-06-21T03:58:50.682Z,1013.11
2017-06-21T03:59:51.777Z,1013.10
2017-06-21T04:00:51.762Z,1013.08
2017-06-21T04:01:45.813Z,1013.09
2017-06-21T04:02:45.896Z,1013.05
2017-06-21T04:03:45.920Z,1013.07
2017-06-21T04:04:45.907Z,1013.09
2017-06-21T04:05:39.922Z,1013.04
2017-06-21T04:06:35.055Z,1013.08
2017-06-21T04:07:36.146Z,1013.07
2017-06-21T04:08:35.790Z,1013.09
2017-06-21T04:09:29.839Z,1013.09
2017-06-21T04:10:23.949Z,1013.14
2017-06-21T04:11:17.925Z,1013.14
2017-06-21T04:12:18.975Z,1013.14
2017-06-21T04:13:07.117Z,1013.13
2017-06-21T04:14:07.031Z,1013.14
2017-06-21T04:15:01.181Z,1013.16
2017-06-21T04:15:55.042Z,1013.18
2017-06-21T04:16:55.096Z,1013.17
2017-06-21T04:17:43.365Z,1013.18
2017-06-21T04:18:44.159Z,1013.18
2017-06-21T04:19:44.460Z,1013.18
2017-06-21T04:20:39.227Z,1013.19
2017-06-21T04:21:27.303Z,1013.20
2017-06-21T04:22:15.611Z,1013.20
2017-06-21T04:23:15.318Z,1013.19
2017-06-21T04:24:10.458Z,1013.19
2017-06-21T04:25:10.656Z,1013.17
2017-06-21T04:26:05.843Z,1013.17
2017-06-21T04:27:05.928Z,1013.21
2017-06-21T04:28:00.934Z,1013.23
2017-06-21T04:28:54.960Z,1013.15
2017-06-21T04:29:49.923Z,1013.16
2017-06-21T04:30:43.685Z,1013.16
2017-06-21T04:31:38.719Z,1013.19
2017-06-21T04:32:38.668Z,1013.19
2017-06-21T04:33:33.756Z,1013.19
2017-06-21T04:34:27.793Z,1013.16
2017-06-21T04:35:33.866Z,1013.16
2017-06-21T04:36:29.142Z,1013.16
2017-06-21T04:37:22.955Z,1013.17
2017-06-21T04:38:17.995Z,1013.12
2017-06-21T04:39:18.006Z,1013.16
2017-06-21T04:40:12.286Z,1013.15
2017-06-21T04:41:12.113Z,1013.15
2017-06-21T04:42:06.115Z,1013.15
2017-06-21T04:43:07.417Z,1013.15
2017-06-21T04:44:01.281Z,1013.17
2017-06-21T04:44:55.251Z,1013.16
2017-06-21T04:45:50.289Z,1013.17
2017-06-21T04:46:45.295Z,1013.16
2017-06-21T04:47:33.837Z,1013.13
2017-06-21T04:48:34.408Z,1013.17
2017-06-21T04:49:34.479Z,1013.18
2017-06-21T04:50:22.519Z,1013.15
2017-06-21T04:51:17.802Z,1013.19
2017-06-21T04:52:11.614Z,1013.23
2017-06-21T04:53:01.055Z,1013.20
2017-06-21T04:53:55.665Z,1013.24
2017-06-21T04:54:56.109Z,1013.24
2017-06-21T04:55:51.038Z,1013.27
2017-06-21T04:56:39.227Z,1013.25
2017-06-21T04:57:33.346Z,1013.22
2017-06-21T04:58:27.925Z,1013.26
2017-06-21T04:59:28.174Z,1013.27
2017-06-21T05:00:22.456Z,1013.30
2017-06-21T05:01:17.436Z,1013.31
2017-06-21T05:02:11.450Z,1013.31
2017-06-21T05:03:06.353Z,1013.36
2017-06-21T05:04:07.575Z,1013.35
2017-06-21T05:05:01.628Z,1013.38
2017-06-21T05:05:55.640Z,1013.39
2017-06-21T05:06:49.710Z,1013.37
2017-06-21T05:07:38.717Z,1013.35
2017-06-21T05:08:32.828Z,1013.39
2017-06-21T05:09:20.891Z,1013.32
2017-06-21T05:10:09.933Z,1013.33
2017-06-21T05:11:04.961Z,1013.36
2017-06-21T05:12:04.965Z,1013.31
2017-06-21T05:12:53.986Z,1013.36
2017-06-21T05:13:48.078Z,1013.36
2017-06-21T05:14:48.079Z,1013.36
2017-06-21T05:15:42.155Z,1013.37
2017-06-21T05:16:36.270Z,1013.39
2017-06-21T05:17:31.249Z,1013.41
2017-06-21T05:18:20.337Z,1013.34
2017-06-21T05:19:09.363Z,1013.35
2017-06-21T05:20:03.417Z,1013.35
2017-06-21T05:20:58.429Z,1013.34
2017-06-21T05:21:59.478Z,1013.39
2017-06-21T05:22:54.544Z,1013.35
2017-06-21T05:23:48.569Z,1013.31
2017-06-21T05:24:48.583Z,1013.36
2017-06-21T05:25:48.695Z,1013.32
2017-06-21T05:26:42.742Z,1013.35
2017-06-21T05:27:42.755Z,1013.32
2017-06-21T05:28:37.769Z,1013.33
2017-06-21T05:29:37.824Z,1013.35
2017-06-21T05:30:37.934Z,1013.38
2017-06-21T05:31:38.084Z,1013.38
2017-06-21T05:32:38.032Z,1013.39
2017-06-21T05:33:38.198Z,1013.41
2017-06-21T05:34:38.033Z,1013.49
2017-06-21T05:35:33.126Z,1013.53
2017-06-21T05:36:33.284Z,1013.53
2017-06-21T05:37:28.195Z,1013.54
2017-06-21T05:38:22.171Z,1013.52
2017-06-21T05:39:17.274Z,1013.56
2017-06-21T05:40:12.300Z,1013.56
2017-06-21T05:41:07.362Z,1013.54
2017-06-21T05:42:02.523Z,1013.56
2017-06-21T05:42:56.484Z,1013.61
2017-06-21T05:43:56.486Z,1013.61
2017-06-21T05:44:50.799Z,1013.59
2017-06-21T05:45:50.626Z,1013.64
2017-06-21T05:46:44.699Z,1013.57
2017-06-21T05:47:38.774Z,1013.59
2017-06-21T05:48:27.809Z,1013.54
2017-06-21T05:49:21.822Z,1013.60
2017-06-21T05:50:22.114Z,1013.57
2017-06-21T05:51:21.875Z,1013.55
2017-06-21T05:52:21.994Z,1013.59
2017-06-21T05:53:17.059Z,1013.57
2017-06-21T05:54:11.086Z,1013.58
2017-06-21T05:55:11.146Z,1013.55
2017-06-21T05:56:06.217Z,1013.53
2017-06-21T05:56:55.221Z,1013.55
2017-06-21T05:57:49.271Z,1013.54
2017-06-21T05:58:43.934Z,1013.48
2017-06-21T05:59:39.089Z,1013.53
2017-06-21T06:00:33.475Z,1013.51
2017-06-21T06:01:27.131Z,1013.56
2017-06-21T06:02:16.464Z,1013.54
2017-06-21T06:03:10.496Z,1013.53
2017-06-21T06:04:10.298Z,1013.58
2017-06-21T06:05:11.533Z,1013.61
2017-06-21T06:06:05.727Z,1013.59
2017-06-21T06:07:00.848Z,1013.59
2017-06-21T06:08:01.889Z,1013.62
2017-06-21T06:08:55.961Z,1013.61
2017-06-21T06:09:49.683Z,1013.59
2017-06-21T06:10:49.600Z,1013.53
2017-06-21T06:11:38.684Z,1013.49
2017-06-21T06:12:34.514Z,1013.47
2017-06-21T06:13:22.789Z,1013.47
2017-06-21T06:14:17.822Z,1013.40
2017-06-21T06:15:17.865Z,1013.46
2017-06-21T06:16:12.131Z,1013.49
2017-06-21T06:17:12.044Z,1013.53
2017-06-21T06:18:06.746Z,1013.48
2017-06-21T06:19:06.447Z,1013.48
2017-06-21T06:20:00.457Z,1013.45
2017-06-21T06:21:01.601Z,1013.44
2017-06-21T06:21:55.626Z,1013.42
2017-06-21T06:22:43.606Z,1013.43
2017-06-21T06:23:33.018Z,1013.43
2017-06-21T06:24:27.799Z,1013.41
2017-06-21T06:25:28.737Z,1013.44
2017-06-21T06:26:17.805Z,1013.48
2017-06-21T06:27:11.930Z,1013.40
2017-06-21T06:28:11.983Z,1013.42
2017-06-21T06:29:06.045Z,1013.38
2017-06-21T06:30:01.139Z,1013.41
2017-06-21T06:30:55.157Z,1013.43
2017-06-21T06:31:43.215Z,1013.42
2017-06-21T06:32:37.348Z,1013.41
2017-06-21T06:33:31.280Z,1013.46
2017-06-21T06:34:25.354Z,1013.43
2017-06-21T06:35:20.012Z,1013.45
2017-06-21T06:36:20.407Z,1013.44
2017-06-21T06:37:14.346Z,1013.40
2017-06-21T06:38:14.551Z,1013.42
2017-06-21T06:39:08.287Z,1013.43
2017-06-21T06:40:03.329Z,1013.36
2017-06-21T06:40:52.710Z,1013.34
2017-06-21T06:41:46.777Z,1013.33
2017-06-21T06:42:40.848Z,1013.35
2017-06-21T06:43:29.965Z,1013.32
2017-06-21T06:44:24.938Z,1013.27
2017-06-21T06:45:13.646Z,1013.25
2017-06-21T06:46:07.692Z,1013.33
2017-06-21T06:47:01.786Z,1013.33
2017-06-21T06:47:55.812Z,1013.27
2017-06-21T06:48:50.945Z,1013.32
2017-06-21T06:49:51.008Z,1013.27
2017-06-21T06:50:51.093Z,1013.28
2017-06-21T06:51:46.084Z,1013.32
2017-06-21T06:52:41.359Z,1013.30
2017-06-21T06:53:35.400Z,1013.32
2017-06-21T06:54:24.232Z,1013.29
2017-06-21T06:55:19.573Z,1013.26
2017-06-21T06:56:13.647Z,1013.25
2017-06-21T06:57:08.695Z,1013.26
2017-06-21T06:58:02.802Z,1013.19
2017-06-21T06:58:50.933Z,1013.15
2017-06-21T06:59:51.928Z,1013.17
2017-06-21T07:00:51.616Z,1013.19
2017-06-21T07:01:40.657Z,1013.17
2017-06-21T07:02:29.722Z,1013.19
2017-06-21T07:03:23.800Z,1013.16
2017-06-21T07:04:17.900Z,1013.14
2017-06-21T07:05:11.901Z,1013.09
2017-06-21T07:06:01.324Z,1013.10
2017-06-21T07:06:49.414Z,1013.07
2017-06-21T07:07:38.736Z,1013.10
2017-06-21T07:08:38.274Z,1013.08
2017-06-21T07:09:32.514Z,1013.14
2017-06-21T07:10:32.413Z,1013.12
2017-06-21T07:11:27.296Z,1013.13
2017-06-21T07:12:21.755Z,1013.14
2017-06-21T07:13:15.413Z,1013.14
2017-06-21T07:14:04.798Z,1013.13
2017-06-21T07:14:59.940Z,1013.16
2017-06-21T07:15:48.006Z,1013.13
2017-06-21T07:16:41.955Z,1013.11
2017-06-21T07:17:30.704Z,1013.13
2017-06-21T07:18:25.038Z,1013.09
2017-06-21T07:19:19.823Z,1013.06
2017-06-21T07:20:13.870Z,1013.12
2017-06-21T07:21:14.023Z,1013.16
2017-06-21T07:22:08.102Z,1013.15
2017-06-21T07:22:56.768Z,1013.06
2017-06-21T07:23:50.406Z,1013.07
2017-06-21T07:24:39.246Z,1013.06
2017-06-21T07:25:34.441Z,1013.06
2017-06-21T07:26:29.274Z,1013.02
2017-06-21T07:27:23.332Z,1013.05
2017-06-21T07:28:18.941Z,1013.04
2017-06-21T07:29:06.858Z,1013.07
2017-06-21T07:30:00.837Z,1013.00
2017-06-21T07:30:55.040Z,1013.01
2017-06-21T07:31:49.917Z,1013.02
2017-06-21T07:32:44.157Z,1013.03
2017-06-21T07:33:43.816Z,1013.05
2017-06-21T07:34:39.241Z,1013.09
2017-06-21T07:35:33.999Z,1013.08
2017-06-21T07:36:23.078Z,1013.09
2017-06-21T07:37:18.339Z,1013.14
2017-06-21T07:38:12.287Z,1013.04
2017-06-21T07:39:07.333Z,1013.09
2017-06-21T07:40:01.496Z,1013.01
2017-06-21T07:40:55.537Z,1013.00
2017-06-21T07:41:43.326Z,1012.96
2017-06-21T07:42:32.775Z,1013.01
2017-06-21T07:43:26.866Z,1012.98
2017-06-21T07:44:21.938Z,1013.03
2017-06-21T07:45:15.912Z,1012.99
2017-06-21T07:46:09.739Z,1013.00
2017-06-21T07:47:04.024Z,1012.93
2017-06-21T07:47:52.062Z,1012.97
2017-06-21T07:48:47.181Z,1012.90
2017-06-21T07:49:40.944Z,1012.90
2017-06-21T07:50:36.001Z,1012.94
2017-06-21T07:51:37.349Z,1012.91
2017-06-21T07:52:26.103Z,1012.93
2017-06-21T07:53:21.422Z,1012.91
2017-06-21T07:54:16.482Z,1012.93
2017-06-21T07:55:10.492Z,1012.93
2017-06-21T07:55:58.582Z,1012.96
2017-06-21T07:56:52.634Z,1012.98
2017-06-21T07:57:41.905Z,1012.99
2017-06-21T07:58:35.856Z,1013.01
2017-06-21T07:59:30.958Z,1013.04
2017-06-21T08:00:19.251Z,1012.99
2017-06-21T08:01:07.693Z,1012.98
2017-06-21T08:02:08.049Z,1013.02
2017-06-21T08:02:57.052Z,1013.00
2017-06-21T08:03:52.224Z,1013.01
2017-06-21T08:04:41.301Z,1012.92
2017-06-21T08:05:36.514Z,1012.91
2017-06-21T08:06:36.255Z,1012.86
2017-06-21T08:07:31.528Z,1012.93
2017-06-21T08:08:25.386Z,1012.91
2017-06-21T08:09:14.559Z,1012.92
2017-06-21T08:10:08.738Z,1012.89
2017-06-21T08:11:02.778Z,1012.90
2017-06-21T08:11:57.782Z,1012.90
2017-06-21T08:12:51.909Z,1012.87
2017-06-21T08:13:46.133Z,1012.86
2017-06-21T08:14:35.117Z,1012.85
2017-06-21T08:15:30.163Z,1012.87
2017-06-21T08:16:25.477Z,1012.82
2017-06-21T08:17:19.312Z,1012.84
2017-06-21T08:18:19.414Z,1012.87
2017-06-21T08:19:14.498Z,1012.82
2017-06-21T08:20:08.582Z,1012.86
2017-06-21T08:20:56.615Z,1012.86
2017-06-21T08:21:51.704Z,1012.85
2017-06-21T08:22:45.778Z,1012.89
2017-06-21T08:23:39.812Z,1012.84
2017-06-21T08:24:39.879Z,1012.85
2017-06-21T08:25:27.968Z,1012.86
2017-06-21T08:26:22.031Z,1012.91
2017-06-21T08:27:16.393Z,1012.94
2017-06-21T08:28:11.168Z,1012.90
2017-06-21T08:29:05.192Z,1012.92
2017-06-21T08:30:00.310Z,1012.91
2017-06-21T08:30:54.440Z,1012.90
2017-06-21T08:31:54.498Z,1012.90
2017-06-21T08:32:48.876Z,1012.94
2017-06-21T08:33:43.677Z,1012.87
2017-06-21T08:34:37.735Z,1012.85
2017-06-21T08:35:32.784Z,1012.86
2017-06-21T08:36:26.879Z,1012.89
2017-06-21T08:37:14.898Z,1012.86
2017-06-21T08:38:04.331Z,1012.83
2017-06-21T08:39:04.042Z,1012.81
2017-06-21T08:39:59.089Z,1012.79
2017-06-21T08:40:53.203Z,1012.76
2017-06-21T08:41:48.285Z,1012.76
2017-06-21T08:42:37.327Z,1012.77
2017-06-21T08:43:31.374Z,1012.72
2017-06-21T08:44:20.471Z,1012.69
2017-06-21T08:45:14.602Z,1012.75
2017-06-21T08:46:09.703Z,1012.72
2017-06-21T08:47:03.767Z,1012.75
2017-06-21T08:48:04.880Z,1012.71
2017-06-21T08:48:53.967Z,1012.70
2017-06-21T08:49:48.022Z,1012.70
2017-06-21T08:50:42.130Z,1012.72
2017-06-21T08:51:31.240Z,1012.71
2017-06-21T08:52:31.297Z,1012.71
2017-06-21T08:53:25.363Z,1012.72
2017-06-21T08:54:19.430Z,1012.74
2017-06-21T08:55:08.571Z,1012.72
2017-06-21T08:56:02.608Z,1012.71
2017-06-21T08:56:56.659Z,1012.69
2017-06-21T08:57:50.842Z,1012.69
2017-06-21T08:58:40.182Z,1012.68
2017-06-21T08:59:28.968Z,1012.68
2017-06-21T09:00:18.050Z,1012.70
2017-06-21T09:01:13.149Z,1012.72
2017-06-21T09:02:08.219Z,1012.68
2017-06-21T09:03:03.329Z,1012.69
2017-06-21T09:03:58.659Z,1012.71
2017-06-21T09:04:46.426Z,1012.70
2017-06-21T09:05:35.540Z,1012.66
2017-06-21T09:06:30.633Z,1012.68
2017-06-21T09:07:19.667Z,1012.69
2017-06-21T09:08:14.772Z,1012.60
2017-06-21T09:09:08.873Z,1012.66
2017-06-21T09:09:57.989Z,1012.62
2017-06-21T09:10:52.043Z,1012.70
2017-06-21T09:11:41.100Z,1012.74
2017-06-21T09:12:30.203Z,1012.69
2017-06-21T09:13:19.292Z,1012.66
2017-06-21T09:14:13.410Z,1012.70
2017-06-21T09:15:07.472Z,1012.72
2017-06-21T09:16:02.579Z,1012.70
2017-06-21T09:16:56.622Z,1012.69
2017-06-21T09:17:50.749Z,1012.67
2017-06-21T09:18:45.818Z,1012.66
2017-06-21T09:19:40.938Z,1012.66
2017-06-21T09:20:35.947Z,1012.62
2017-06-21T09:21:30.045Z,1012.64
2017-06-21T09:22:19.180Z,1012.61
2017-06-21T09:23:13.249Z,1012.62
2017-06-21T09:24:08.321Z,1012.64
2017-06-21T09:25:02.316Z,1012.67
2017-06-21T09:25:56.441Z,1012.67
2017-06-21T09:26:56.497Z,1012.68
2017-06-21T09:27:45.552Z,1012.69
2017-06-21T09:28:39.632Z,1012.71
2017-06-21T09:29:39.725Z,1012.70
2017-06-21T09:30:33.757Z,1012.63
2017-06-21T09:31:33.815Z,1012.65
2017-06-21T09:32:33.906Z,1012.67
2017-06-21T09:33:28.899Z,1012.62
2017-06-21T09:34:24.015Z,1012.62
2017-06-21T09:35:13.084Z,1012.62
2017-06-21T09:36:13.148Z,1012.58
2017-06-21T09:37:01.254Z,1012.66
2017-06-21T09:37:49.306Z,1012.67
2017-06-21T09:38:43.325Z,1012.64
2017-06-21T09:39:31.437Z,1012.65
2017-06-21T09:40:19.464Z,1012.64
2017-06-21T09:41:19.584Z,1012.67
2017-06-21T09:42:13.632Z,1012.71
2017-06-21T09:43:08.690Z,1012.71
2017-06-21T09:44:02.726Z,1012.70
2017-06-21T09:44:50.827Z,1012.68
2017-06-21T09:45:44.913Z,1012.71
2017-06-21T09:46:33.017Z,1012.71
2017-06-21T09:47:21.123Z,1012.69
2017-06-21T09:48:21.148Z,1012.66
2017-06-21T09:49:15.201Z,1012.70
2017-06-21T09:50:15.340Z,1012.70
2017-06-21T09:51:09.382Z,1012.68
2017-06-21T09:51:58.425Z,1012.65
2017-06-21T09:52:52.527Z,1012.65
2017-06-21T09:53:46.507Z,1012.74
2017-06-21T09:54:40.938Z,1012.71
2017-06-21T09:55:40.694Z,1012.63
2017-06-21T09:56:35.709Z,1012.59
2017-06-21T09:57:35.775Z,1012.70
2017-06-21T09:58:29.839Z,1012.71
2017-06-21T09:59:30.892Z,1012.63
2017-06-21T10:00:31.032Z,1012.66
2017-06-21T10:01:20.051Z,1012.73
2017-06-21T10:02:09.106Z,1012.66
2017-06-21T10:03:03.053Z,1012.66
2017-06-21T10:04:03.238Z,1012.60
2017-06-21T10:04:52.328Z,1012.62
2017-06-21T10:05:46.394Z,1012.71
2017-06-21T10:06:46.476Z,1012.69
2017-06-21T10:07:35.570Z,1012.66
2017-06-21T10:08:29.568Z,1012.67
2017-06-21T10:09:30.634Z,1012.73
2017-06-21T10:10:30.763Z,1012.71
2017-06-21T10:11:25.831Z,1012.63
2017-06-21T10:12:20.907Z,1012.57
2017-06-21T10:13:09.006Z,1012.57
2017-06-21T10:14:03.096Z,1012.58
2017-06-21T10:15:04.125Z,1012.57
2017-06-21T10:15:53.248Z,1012.60
2017-06-21T10:16:48.339Z,1012.55
2017-06-21T10:17:43.610Z,1012.54
2017-06-21T10:18:32.445Z,1012.50
2017-06-21T10:19:21.582Z,1012.55
2017-06-21T10:20:15.626Z,1012.55
2017-06-21T10:21:10.691Z,1012.56
2017-06-21T10:22:04.755Z,1012.68
2017-06-21T10:22:58.871Z,1012.60
2017-06-21T10:23:52.978Z,1012.68
2017-06-21T10:24:41.025Z,1012.66
2017-06-21T10:25:36.498Z,1012.71
2017-06-21T10:26:25.200Z,1012.66
2017-06-21T10:27:19.238Z,1012.65
2017-06-21T10:28:19.312Z,1012.66
2017-06-21T10:29:13.418Z,1012.69
2017-06-21T10:30:07.438Z,1012.65
2017-06-21T10:31:01.823Z,1012.71
2017-06-21T10:31:55.585Z,1012.78
2017-06-21T10:32:50.688Z,1012.67
2017-06-21T10:33:45.775Z,1012.76
2017-06-21T10:34:39.838Z,1012.71
2017-06-21T10:35:45.977Z,1012.71
2017-06-21T10:36:40.999Z,1012.77
2017-06-21T10:37:30.110Z,1012.74
2017-06-21T10:38:30.139Z,1012.75
2017-06-21T10:39:18.223Z,1012.81
2017-06-21T10:40:07.388Z,1012.76
2017-06-21T10:41:01.446Z,1012.75
2017-06-21T10:42:01.538Z,1012.74
2017-06-21T10:42:55.536Z,1012.69
2017-06-21T10:43:44.507Z,1012.75
2017-06-21T10:44:33.724Z,1012.81
2017-06-21T10:45:21.835Z,1012.75
2017-06-21T10:46:10.023Z,1012.78
2017-06-21T10:46:59.028Z,1012.85
2017-06-21T10:47:47.101Z,1012.83
2017-06-21T10:48:42.144Z,1012.81
2017-06-21T10:49:31.255Z,1012.78
2017-06-21T10:50:31.342Z,1012.80
2017-06-21T10:51:20.446Z,1012.81
2017-06-21T10:52:14.505Z,1012.83
2017-06-21T10:53:09.583Z,1012.78
2017-06-21T10:54:09.666Z,1012.73
2017-06-21T10:55:03.805Z,1012.74
2017-06-21T10:55:57.830Z,1012.85
2017-06-21T10:56:45.975Z,1012.75
2017-06-21T10:57:35.014Z,1012.63
2017-06-21T10:58:35.101Z,1012.77
2017-06-21T10:59:24.161Z,1012.80
2017-06-21T11:00:19.227Z,1012.72
2017-06-21T11:01:13.278Z,1012.52